Time;durP1;ratioP1;P1;durP2;ratioP2;P2;SDS_P1;SDS_P2;PMS_P1;PMS_P2;Temp;Humidity;BMP_temperature;BMP_pressure;BME280_temperature;BME280_humidity;BME280_pressure;Samples;Min_cycle;Max_cycle;Signal;HPM_P1;HPM_P2
2023/09/12 00:01:43;;;;;;;17.98;15.48;;;21.50;99.90;;;;;;5083702;28;20036;-43
2023/09/12 00:04:11;;;;;;;22.90;16.20;;;21.50;99.90;;;;;;5083876;28;20086;-43
2023/09/12 00:06:36;;;;;;;18.05;16.10;;;21.50;99.90;;;;;;5084097;28;20483;-43
2023/09/12 00:09:05;;;;;;;17.88;15.40;;;21.40;99.90;;;;;;5084070;28;20027;-43
2023/09/12 00:11:30;;;;;;;20.60;15.90;;;21.40;99.90;;;;;;5084701;28;20099;-43
2023/09/12 00:13:59;;;;;;;18.42;15.30;;;21.40;99.90;;;;;;5083516;28;20046;-43
2023/09/12 00:16:25;;;;;;;18.45;14.90;;;21.40;99.90;;;;;;5084003;28;20032;-43
2023/09/12 00:18:50;;;;;;;19.58;15.55;;;21.50;99.90;;;;;;5084190;28;20039;-43
2023/09/12 00:21:16;;;;;;;17.13;14.98;;;21.50;99.90;;;;;;5083267;28;20391;-43
2023/09/12 00:23:41;;;;;;;16.63;14.23;;;21.50;99.90;;;;;;5084085;28;20107;-43
2023/09/12 00:26:10;;;;;;;16.50;14.02;;;21.50;99.90;;;;;;5083838;28;20378;-43
2023/09/12 00:28:37;;;;;;;17.63;15.05;;;21.50;99.90;;;;;;5083354;28;20020;-42
2023/09/12 00:31:02;;;;;;;16.88;15.07;;;21.40;99.90;;;;;;5084123;28;20059;-43
2023/09/12 00:33:28;;;;;;;16.85;15.05;;;21.40;99.90;;;;;;5084673;28;20091;-42
2023/09/12 00:35:53;;;;;;;15.60;13.60;;;21.40;99.90;;;;;;5076348;28;20028;-42
2023/09/12 00:38:19;;;;;;;16.42;12.98;;;21.40;99.90;;;;;;5071528;28;20026;-42
2023/09/12 00:40:47;;;;;;;18.83;14.68;;;21.30;99.90;;;;;;5083577;28;20072;-43
2023/09/12 00:43:13;;;;;;;15.13;13.52;;;21.30;99.90;;;;;;5083635;28;20067;-42
2023/09/12 00:45:39;;;;;;;18.98;14.77;;;21.30;99.90;;;;;;5084511;28;20443;-43
2023/09/12 00:48:05;;;;;;;15.43;13.02;;;21.30;99.90;;;;;;5082746;28;20498;-42
2023/09/12 00:50:32;;;;;;;15.63;14.02;;;21.30;99.90;;;;;;5084173;28;20057;-42
2023/09/12 00:52:59;;;;;;;17.50;13.63;;;21.30;99.90;;;;;;5084038;28;20027;-44
2023/09/12 00:55:24;;;;;;;14.90;13.32;;;21.40;99.90;;;;;;5083117;28;20028;-43
2023/09/12 00:57:52;;;;;;;14.35;12.77;;;21.40;99.90;;;;;;5084399;28;20030;-43
2023/09/12 01:00:17;;;;;;;14.15;11.43;;;21.40;99.90;;;;;;5084476;28;20043;-43
2023/09/12 01:02:45;;;;;;;15.85;13.18;;;21.40;99.90;;;;;;5087027;28;20032;-43
2023/09/12 01:05:14;;;;;;;14.65;13.15;;;21.40;99.90;;;;;;5086734;28;20027;-43
2023/09/12 01:07:39;;;;;;;16.75;12.88;;;21.50;99.90;;;;;;5067897;28;20024;-44
2023/09/12 01:10:07;;;;;;;15.32;13.75;;;21.50;99.90;;;;;;5080491;28;20024;-42
2023/09/12 01:12:36;;;;;;;14.43;12.93;;;21.50;99.90;;;;;;5087037;28;20035;-42
2023/09/12 01:15:08;;;;;;;18.15;13.85;;;21.50;99.90;;;;;;5087213;28;20028;-43
2023/09/12 01:17:34;;;;;;;15.90;13.35;;;21.50;99.90;;;;;;5086339;28;20443;-42
2023/09/12 01:20:02;;;;;;;14.85;13.05;;;21.50;99.90;;;;;;5086842;28;20031;-42
2023/09/12 01:22:53;;;;;;;14.82;12.82;;;21.50;99.90;;;;;;5087724;28;20046;-43
2023/09/12 01:25:55;;;;;;;15.65;13.35;;;21.50;99.90;;;;;;5087006;28;20685;-43
2023/09/12 01:28:23;;;;;;;;;;;21.50;99.90;;;;;;5066849;28;20064;-43
2023/09/12 01:30:50;;;;;;;13.52;11.65;;;21.40;99.90;;;;;;5081346;28;20476;-43
2023/09/12 01:33:19;;;;;;;14.93;13.18;;;21.40;99.90;;;;;;5086421;28;20046;-43
2023/09/12 01:35:46;;;;;;;14.45;12.93;;;21.30;99.90;;;;;;5086940;28;20115;-44
2023/09/12 01:38:12;;;;;;;15.70;13.63;;;21.30;99.90;;;;;;5085331;28;20023;-44
2023/09/12 01:40:48;;;;;;;13.55;12.02;;;21.30;99.90;;;;;;5086606;28;20056;-45
2023/09/12 01:43:17;;;;;;;17.83;13.93;;;21.20;99.90;;;;;;5086142;28;20028;-43
2023/09/12 01:45:45;;;;;;;16.65;13.60;;;21.10;99.90;;;;;;5085777;28;20024;-43
2023/09/12 01:48:12;;;;;;;17.17;14.77;;;21.10;99.90;;;;;;5086287;28;20028;-43
2023/09/12 01:50:38;;;;;;;17.15;14.75;;;21.10;99.90;;;;;;5086566;28;20031;-43
2023/09/12 01:53:07;;;;;;;17.13;14.35;;;21.10;99.90;;;;;;5085598;28;20051;-44
2023/09/12 01:55:34;;;;;;;16.95;13.90;;;21.10;99.90;;;;;;5086460;28;20024;-43
2023/09/12 01:58:03;;;;;;;14.60;13.13;;;21.10;99.90;;;;;;5073522;28;20139;-43
2023/09/12 02:00:28;;;;;;;15.18;13.45;;;21.10;99.90;;;;;;5086262;28;20054;-43
2023/09/12 02:02:55;;;;;;;15.05;13.32;;;21.10;99.90;;;;;;5086099;28;20059;-43
2023/09/12 02:05:22;;;;;;;17.20;13.93;;;21.10;99.90;;;;;;5085532;28;20024;-43
2023/09/12 02:07:48;;;;;;;15.43;13.70;;;21.10;99.90;;;;;;5086979;28;20024;-44
2023/09/12 02:10:15;;;;;;;14.95;13.35;;;21.10;99.90;;;;;;5086267;28;20706;-43
2023/09/12 02:12:40;;;;;;;14.32;12.85;;;21.10;99.90;;;;;;5085547;28;20119;-43
2023/09/12 02:15:07;;;;;;;16.33;13.90;;;21.10;99.90;;;;;;5085898;28;20130;-43
2023/09/12 02:17:32;;;;;;;16.50;14.25;;;21.10;99.90;;;;;;5086020;28;20483;-43
2023/09/12 02:20:01;;;;;;;19.02;13.90;;;21.10;99.90;;;;;;5085806;28;20031;-43
2023/09/12 02:22:26;;;;;;;14.18;12.70;;;21.10;99.90;;;;;;5085795;28;20028;-43
2023/09/12 02:24:52;;;;;;;13.95;12.55;;;21.00;99.90;;;;;;5086243;28;20023;-43
2023/09/12 02:27:20;;;;;;;13.63;12.20;;;21.00;99.90;;;;;;5084634;28;20032;-43
2023/09/12 02:29:46;;;;;;;15.40;13.02;;;20.90;99.90;;;;;;5086830;28;20047;-43
2023/09/12 02:32:11;;;;;;;14.90;13.38;;;20.90;99.90;;;;;;5086116;28;20466;-43
2023/09/12 02:34:37;;;;;;;14.25;12.75;;;20.90;99.90;;;;;;5085892;28;20794;-43
2023/09/12 02:37:02;;;;;;;13.52;12.13;;;20.90;99.90;;;;;;5085875;28;20161;-43
2023/09/12 02:39:28;;;;;;;14.30;12.52;;;20.80;99.90;;;;;;5085615;28;20095;-43
2023/09/12 02:41:53;;;;;;;14.52;13.02;;;20.80;99.90;;;;;;5085013;28;20024;-42
2023/09/12 02:44:19;;;;;;;14.90;13.30;;;20.80;99.90;;;;;;5085413;28;20051;-42
2023/09/12 02:46:45;;;;;;;15.95;14.35;;;20.80;99.90;;;;;;5086091;28;20031;-43
2023/09/12 02:49:11;;;;;;;14.93;13.32;;;20.80;99.90;;;;;;5084350;28;20035;-43
2023/09/12 02:51:39;;;;;;;15.85;13.43;;;20.80;99.90;;;;;;5085555;28;20024;-42
2023/09/12 02:54:08;;;;;;;17.38;13.50;;;20.80;99.90;;;;;;5085266;28;20055;-42
2023/09/12 02:56:33;;;;;;;14.43;12.93;;;20.80;99.90;;;;;;5084896;28;20206;-42
2023/09/12 02:58:59;;;;;;;19.63;13.85;;;20.80;99.90;;;;;;5084661;28;20119;-42
2023/09/12 03:01:28;;;;;;;15.00;12.48;;;20.70;99.90;;;;;;5084217;28;20056;-42
2023/09/12 03:03:54;;;;;;;16.38;12.20;;;20.80;99.90;;;;;;5084692;28;20139;-42
2023/09/12 03:06:20;;;;;;;14.73;13.18;;;20.70;99.90;;;;;;5084926;28;20504;-42
2023/09/12 03:08:46;;;;;;;15.18;11.82;;;20.70;99.90;;;;;;5084702;28;20110;-42
2023/09/12 03:11:12;;;;;;;14.70;12.38;;;20.70;99.90;;;;;;5084535;28;20065;-42
2023/09/12 03:16:39;;;;;;;12.95;11.65;;;20.70;99.90;;;;;;5083480;28;20036;-42
2023/09/12 03:19:08;;;;;;;13.63;12.20;;;20.70;99.90;;;;;;5084571;28;20049;-42
2023/09/12 03:21:33;;;;;;;13.68;11.55;;;20.70;99.90;;;;;;5084536;28;20520;-42
2023/09/12 03:23:59;;;;;;;13.25;11.80;;;20.70;99.90;;;;;;5083488;28;20095;-42
2023/09/12 03:26:24;;;;;;;13.25;11.85;;;20.70;99.90;;;;;;5084541;28;20030;-42
2023/09/12 03:28:51;;;;;;;14.38;11.90;;;20.70;99.90;;;;;;5084752;28;20483;-42
2023/09/12 03:31:19;;;;;;;14.85;11.65;;;20.70;99.90;;;;;;5083775;28;20078;-43
2023/09/12 03:33:50;;;;;;;13.65;12.25;;;20.70;99.90;;;;;;5085179;28;20024;-43
2023/09/12 03:36:17;;;;;;;13.00;11.60;;;20.70;99.90;;;;;;5084297;28;20745;-41
2023/09/12 03:38:43;;;;;;;13.63;12.18;;;20.70;99.90;;;;;;5083965;28;20544;-42
2023/09/12 03:41:08;;;;;;;13.73;12.27;;;20.60;99.90;;;;;;5084868;28;20032;-42
2023/09/12 03:43:34;;;;;;;13.93;10.98;;;20.70;99.90;;;;;;5084247;28;20123;-42
2023/09/12 03:46:00;;;;;;;11.93;10.80;;;20.60;99.90;;;;;;5084994;28;20020;-43
2023/09/12 03:48:25;;;;;;;11.88;10.68;;;20.70;99.90;;;;;;5085735;28;20077;-43
2023/09/12 03:50:51;;;;;;;11.60;10.40;;;20.70;99.90;;;;;;5084394;28;20019;-43
2023/09/12 03:53:17;;;;;;;13.30;10.65;;;20.70;99.90;;;;;;5083972;28;20101;-43
2023/09/12 03:55:46;;;;;;;12.95;10.63;;;20.70;99.90;;;;;;5085303;28;20035;-42
2023/09/12 03:58:11;;;;;;;11.65;10.45;;;20.70;99.90;;;;;;5083337;28;20103;-42
2023/09/12 04:00:37;;;;;;;11.70;10.50;;;20.70;99.90;;;;;;5084167;28;20142;-42
2023/09/12 04:03:05;;;;;;;11.10;9.98;;;20.70;99.90;;;;;;5084740;28;20119;-42
2023/09/12 04:05:40;;;;;;;10.32;9.32;;;20.70;99.90;;;;;;5083497;28;20445;-43
2023/09/12 04:08:12;;;;;;;10.55;9.45;;;20.70;99.90;;;;;;5084004;28;20054;-42
2023/09/12 04:10:37;;;;;;;11.13;9.95;;;20.60;99.90;;;;;;5084542;28;20044;-42
2023/09/12 04:13:12;;;;;;;11.05;9.85;;;20.60;99.90;;;;;;5083184;28;20111;-42
2023/09/12 04:15:37;;;;;;;12.00;10.80;;;20.60;99.90;;;;;;5084145;28;20067;-42
2023/09/12 04:18:04;;;;;;;12.95;11.57;;;20.60;99.90;;;;;;5083587;28;20051;-42
2023/09/12 04:20:29;;;;;;;12.93;11.63;;;20.60;99.90;;;;;;5083598;28;20031;-42
2023/09/12 04:22:55;;;;;;;13.45;12.02;;;20.60;99.90;;;;;;5084508;28;20078;-42
2023/09/12 04:25:23;;;;;;;13.25;11.85;;;20.60;99.90;;;;;;5083371;28;20031;-42
2023/09/12 04:27:49;;;;;;;14.80;13.20;;;20.60;99.90;;;;;;5083353;28;20073;-43
2023/09/12 04:30:15;;;;;;;17.17;14.02;;;20.60;99.90;;;;;;5083606;28;20024;-43
2023/09/12 04:32:40;;;;;;;16.13;13.98;;;20.50;99.90;;;;;;5083573;28;20035;-44
2023/09/12 04:35:06;;;;;;;15.68;13.27;;;20.60;99.90;;;;;;5085329;28;20028;-43
2023/09/12 04:37:32;;;;;;;15.98;13.52;;;20.50;99.90;;;;;;5088223;28;20081;-43
2023/09/12 04:39:58;;;;;;;16.17;14.23;;;20.50;99.90;;;;;;5087686;28;20086;-43
2023/09/12 04:42:23;;;;;;;16.50;13.10;;;20.50;99.90;;;;;;5087842;28;20063;-43
2023/09/12 04:44:49;;;;;;;22.60;17.08;;;20.50;99.90;;;;;;5087916;28;20055;-43
2023/09/12 04:47:14;;;;;;;23.20;17.73;;;20.50;99.90;;;;;;5087175;28;20115;-43
2023/09/12 04:49:43;;;;;;;19.65;16.10;;;20.40;99.90;;;;;;5087970;28;20055;-43
2023/09/12 04:52:08;;;;;;;20.90;16.55;;;20.40;99.90;;;;;;5087683;28;20135;-42
2023/09/12 04:54:34;;;;;;;21.08;16.35;;;20.40;99.90;;;;;;5087402;28;20118;-43
2023/09/12 04:56:59;;;;;;;21.67;17.38;;;20.40;99.90;;;;;;5087362;28;20028;-42
2023/09/12 04:59:25;;;;;;;24.17;18.10;;;20.40;99.90;;;;;;5088032;28;20032;-42
2023/09/12 05:01:51;;;;;;;22.33;16.55;;;20.50;99.90;;;;;;5086204;28;20054;-42
2023/09/12 05:04:16;;;;;;;21.67;14.82;;;20.50;99.90;;;;;;5087055;28;20488;-42
2023/09/12 05:06:42;;;;;;;18.85;14.80;;;20.60;99.90;;;;;;5087549;28;20097;-42
2023/09/12 05:09:08;;;;;;;19.67;15.65;;;20.50;99.90;;;;;;5086766;28;20036;-42
2023/09/12 05:11:37;;;;;;;18.85;15.02;;;20.50;99.90;;;;;;5087524;28;20032;-42
2023/09/12 05:14:03;;;;;;;17.30;14.55;;;20.50;99.90;;;;;;5087216;28;20019;-42
2023/09/12 05:16:29;;;;;;;18.55;15.13;;;20.50;99.90;;;;;;5087245;28;20028;-42
2023/09/12 05:18:55;;;;;;;17.95;14.50;;;20.50;99.90;;;;;;5086910;28;20111;-42
2023/09/12 05:21:21;;;;;;;16.83;14.27;;;20.50;99.90;;;;;;5087750;28;20140;-42
2023/09/12 05:23:46;;;;;;;19.65;15.75;;;20.50;99.90;;;;;;5086345;28;20079;-42
2023/09/12 05:26:14;;;;;;;18.10;14.82;;;20.50;99.90;;;;;;5086731;28;20040;-42
2023/09/12 05:28:40;;;;;;;17.52;14.68;;;20.50;99.90;;;;;;5087179;28;20125;-42
2023/09/12 05:31:09;;;;;;;17.83;15.43;;;20.50;99.90;;;;;;5086184;28;20028;-43
2023/09/12 05:33:34;;;;;;;17.92;14.77;;;20.50;99.90;;;;;;5087052;28;20490;-42
2023/09/12 05:36:03;;;;;;;20.23;15.43;;;20.60;99.90;;;;;;5086723;28;20024;-43
2023/09/12 05:38:29;;;;;;;17.27;14.25;;;20.60;99.90;;;;;;5087417;28;20103;-42
2023/09/12 05:40:54;;;;;;;19.80;15.30;;;20.60;99.90;;;;;;5087007;28;20088;-42
2023/09/12 05:43:20;;;;;;;17.88;13.95;;;20.60;99.90;;;;;;5085943;28;20058;-42
2023/09/12 05:45:45;;;;;;;16.42;13.57;;;20.60;99.90;;;;;;5086923;28;20102;-43
2023/09/12 05:48:11;;;;;;;14.52;12.68;;;20.70;99.90;;;;;;5086747;28;20024;-42
2023/09/12 05:50:37;;;;;;;15.18;12.75;;;20.70;99.90;;;;;;5086688;28;20036;-42
2023/09/12 05:53:03;;;;;;;14.23;11.93;;;20.60;99.90;;;;;;5086673;28;20038;-43
2023/09/12 05:55:31;;;;;;;14.45;11.98;;;20.60;99.90;;;;;;5086726;28;20020;-42
2023/09/12 05:57:57;;;;;;;17.15;14.38;;;20.60;99.90;;;;;;5085943;28;20067;-42
2023/09/12 06:00:22;;;;;;;18.45;13.55;;;20.60;99.90;;;;;;5085993;28;20080;-42
2023/09/12 06:02:48;;;;;;;18.33;14.35;;;20.60;99.90;;;;;;5086928;28;20028;-42
2023/09/12 06:05:15;;;;;;;17.15;13.95;;;20.60;99.90;;;;;;5085681;28;20028;-42
2023/09/12 06:07:41;;;;;;;16.33;13.55;;;20.60;99.90;;;;;;5086610;28;20030;-42
2023/09/12 06:10:07;;;;;;;16.77;13.95;;;20.70;99.90;;;;;;5086103;28;20035;-43
2023/09/12 06:12:35;;;;;;;20.48;15.10;;;20.70;99.90;;;;;;5086046;28;20024;-42
2023/09/12 06:15:04;;;;;;;19.13;15.00;;;20.60;99.90;;;;;;5085687;28;20043;-42
2023/09/12 06:17:30;;;;;;;21.50;14.75;;;20.60;99.90;;;;;;5086290;28;20031;-42
2023/09/12 06:19:56;;;;;;;17.15;13.73;;;20.70;99.90;;;;;;5085545;28;20092;-43
2023/09/12 06:22:22;;;;;;;18.88;14.50;;;20.70;99.90;;;;;;5085623;28;20681;-43
2023/09/12 06:24:49;;;;;;;19.08;15.07;;;20.80;99.90;;;;;;5085986;28;20099;-42
2023/09/12 06:27:18;;;;;;;18.17;15.45;;;20.80;99.90;;;;;;5085149;28;20077;-46
2023/09/12 06:29:46;;;;;;;20.60;16.00;;;20.80;99.90;;;;;;5085890;28;20038;-42
2023/09/12 06:32:11;;;;;;;20.40;15.73;;;20.90;99.90;;;;;;5085278;28;20141;-42
2023/09/12 06:34:40;;;;;;;17.85;13.85;;;21.00;99.90;;;;;;5085461;28;20480;-43
2023/09/12 06:37:05;;;;;;;18.48;15.18;;;21.00;99.90;;;;;;5086129;28;20028;-43
2023/09/12 06:39:31;;;;;;;20.30;16.85;;;21.00;99.90;;;;;;5085784;28;20352;-44
2023/09/12 06:41:56;;;;;;;21.33;16.75;;;20.90;99.90;;;;;;5085985;28;20119;-43
2023/09/12 06:44:22;;;;;;;21.35;17.73;;;20.90;99.90;;;;;;5086128;28;20082;-43
2023/09/12 06:46:47;;;;;;;21.42;16.50;;;20.90;99.90;;;;;;5085346;28;20028;-42
2023/09/12 06:49:13;;;;;;;24.08;17.77;;;20.90;99.90;;;;;;5085881;28;20020;-43
2023/09/12 06:51:39;;;;;;;22.00;16.95;;;20.90;99.90;;;;;;5085891;28;20128;-43
2023/09/12 06:54:04;;;;;;;21.27;17.10;;;21.00;99.90;;;;;;5084742;28;20034;-43
2023/09/12 06:56:30;;;;;;;22.77;17.55;;;21.00;99.90;;;;;;5085025;28;20027;-42
2023/09/12 06:58:55;;;;;;;22.88;18.58;;;21.00;99.90;;;;;;5084768;28;20026;-43
2023/09/12 07:01:21;;;;;;;24.33;17.25;;;20.90;99.90;;;;;;5083761;28;20050;-42
2023/09/12 07:03:48;;;;;;;22.10;17.88;;;21.00;99.90;;;;;;5085819;28;20197;-42
2023/09/12 07:06:14;;;;;;;23.10;17.63;;;21.10;99.90;;;;;;5084884;28;20065;-42
2023/09/12 07:08:39;;;;;;;22.02;17.23;;;21.10;99.90;;;;;;5084102;28;20031;-42
2023/09/12 07:11:08;;;;;;;22.50;17.83;;;21.20;99.90;;;;;;5084741;28;20027;-42
2023/09/12 07:13:34;;;;;;;21.17;17.90;;;21.20;99.90;;;;;;5074785;28;20054;-43
2023/09/12 07:16:03;;;;;;;19.67;15.88;;;21.30;99.90;;;;;;5084264;28;20028;-42
2023/09/12 07:18:28;;;;;;;23.20;19.33;;;21.30;99.90;;;;;;5085668;28;20020;-42
2023/09/12 07:20:58;;;;;;;21.45;17.40;;;21.30;99.90;;;;;;5084988;28;20036;-42
2023/09/12 07:23:24;;;;;;;22.48;17.45;;;21.30;99.90;;;;;;5084047;28;20096;-42
2023/09/12 07:25:49;;;;;;;24.20;18.13;;;21.30;99.90;;;;;;5085533;28;20561;-41
2023/09/12 07:28:15;;;;;;;22.52;18.00;;;21.30;99.90;;;;;;5084363;28;20024;-42
2023/09/12 07:30:41;;;;;;;23.50;18.45;;;21.30;99.90;;;;;;5084391;28;20032;-42
2023/09/12 07:33:06;;;;;;;22.95;17.40;;;21.40;99.90;;;;;;5084072;28;20043;-42
2023/09/12 07:35:32;;;;;;;22.48;18.60;;;21.40;99.90;;;;;;5084465;28;20050;-42
2023/09/12 07:37:59;;;;;;;22.70;17.02;;;21.40;99.90;;;;;;5084316;28;20051;-42
2023/09/12 07:40:24;;;;;;;22.88;17.50;;;21.40;99.90;;;;;;5084994;28;20083;-42
2023/09/12 07:42:50;;;;;;;20.85;16.85;;;21.40;99.90;;;;;;5084147;28;20410;-42
2023/09/12 07:45:16;;;;;;;24.17;19.20;;;21.40;99.90;;;;;;5084760;28;20066;-42
2023/09/12 07:47:41;;;;;;;22.92;17.90;;;21.50;99.90;;;;;;5085059;28;20386;-42
2023/09/12 07:50:07;;;;;;;20.30;16.70;;;21.50;99.90;;;;;;5084226;28;20115;-42
2023/09/12 07:52:33;;;;;;;22.00;18.13;;;21.50;99.90;;;;;;5085159;28;20016;-42
2023/09/12 07:55:05;;;;;;;24.33;19.15;;;21.60;99.90;;;;;;5084618;28;20055;-42
2023/09/12 07:57:34;;;;;;;;;;;21.60;99.90;;;;;;5084828;28;20126;-42
2023/09/12 08:00:00;;;;;;;20.98;15.55;;;21.70;99.90;;;;;;5084182;28;20264;-42
2023/09/12 08:02:25;;;;;;;21.50;17.10;;;21.70;99.90;;;;;;5084491;28;20093;-42
2023/09/12 08:04:54;;;;;;;20.35;16.42;;;21.60;99.90;;;;;;5084079;28;20026;-42
2023/09/12 08:07:25;;;;;;;22.17;17.35;;;21.60;99.90;;;;;;5084858;28;20051;-42
2023/09/12 08:09:53;;;;;;;22.98;17.27;;;21.70;99.90;;;;;;5082320;28;20106;-42
2023/09/12 08:12:20;;;;;;;24.95;18.17;;;21.70;99.90;;;;;;5087990;28;20035;-42
2023/09/12 08:14:45;;;;;;;24.98;19.17;;;21.70;99.90;;;;;;5089065;28;20016;-42
2023/09/12 08:17:12;;;;;;;25.48;18.95;;;21.70;99.90;;;;;;5088142;28;20585;-42
2023/09/12 08:19:38;;;;;;;23.05;17.40;;;21.60;99.90;;;;;;5087635;28;20138;-42
2023/09/12 08:22:06;;;;;;;25.85;20.85;;;21.60;99.90;;;;;;5087439;28;20126;-42
2023/09/12 08:24:31;;;;;;;25.88;19.15;;;21.50;99.90;;;;;;5088577;28;20137;-43
2023/09/12 08:26:57;;;;;;;21.45;17.55;;;21.50;99.90;;;;;;5087387;28;20471;-43
2023/09/12 08:29:24;;;;;;;34.00;26.33;;;21.50;99.90;;;;;;5087811;28;20513;-42
2023/09/12 08:31:53;;;;;;;28.50;21.83;;;21.50;99.90;;;;;;5088036;28;20509;-42
2023/09/12 08:34:19;;;;;;;24.27;18.48;;;21.40;99.90;;;;;;5087216;28;20613;-42
2023/09/12 08:36:45;;;;;;;24.60;19.42;;;21.40;99.90;;;;;;5088146;28;20027;-43
2023/09/12 08:39:13;;;;;;;20.05;15.85;;;21.40;99.90;;;;;;5087238;28;20715;-43
2023/09/12 08:41:38;;;;;;;23.60;18.15;;;21.40;99.90;;;;;;5088488;28;20119;-43
2023/09/12 08:44:05;;;;;;;23.25;17.70;;;21.40;99.90;;;;;;5087732;28;20118;-43
2023/09/12 08:46:34;;;;;;;25.10;18.90;;;21.40;99.90;;;;;;5087829;28;20107;-43
2023/09/12 08:49:00;;;;;;;21.95;17.30;;;21.50;99.90;;;;;;5087739;28;20566;-43
2023/09/12 08:51:28;;;;;;;24.70;18.98;;;21.50;99.90;;;;;;5087665;28;20036;-43
2023/09/12 08:54:00;;;;;;;23.55;18.17;;;21.50;99.90;;;;;;5086886;28;20036;-43
2023/09/12 08:56:27;;;;;;;20.15;15.25;;;21.50;99.90;;;;;;5087815;28;20777;-43
2023/09/12 08:58:54;;;;;;;20.67;15.82;;;21.50;99.90;;;;;;5087659;28;20028;-44
2023/09/12 09:01:20;;;;;;;20.05;15.68;;;21.60;99.90;;;;;;5086372;28;20461;-43
2023/09/12 09:03:46;;;;;;;20.25;15.13;;;21.70;99.90;;;;;;5087919;28;20089;-43
2023/09/12 09:06:14;;;;;;;18.40;14.70;;;21.70;99.90;;;;;;5086948;28;20020;-43
2023/09/12 09:08:41;;;;;;;17.95;14.73;;;21.80;99.90;;;;;;5087329;28;20114;-43
2023/09/12 09:11:07;;;;;;;16.55;13.57;;;21.80;99.90;;;;;;5086540;28;20391;-43
2023/09/12 09:13:39;;;;;;;16.40;13.60;;;21.80;99.90;;;;;;5087696;28;20024;-43
2023/09/12 09:16:21;;;;;;;15.30;13.10;;;21.80;99.90;;;;;;5086193;28;20024;-43
2023/09/12 09:19:10;;;;;;;14.43;12.57;;;21.80;99.90;;;;;;5087557;28;20119;-43
2023/09/12 09:21:37;;;;;;;14.32;12.68;;;21.80;99.90;;;;;;5084694;28;20475;-42
2023/09/12 09:24:10;;;;;;;15.48;12.85;;;21.90;99.90;;;;;;5087094;28;20020;-43
2023/09/12 09:26:43;;;;;;;13.70;11.88;;;21.90;99.90;;;;;;5087069;28;20933;-42
2023/09/12 09:29:12;;;;;;;15.20;12.25;;;22.00;99.90;;;;;;5085781;28;20028;-43
2023/09/12 09:31:42;;;;;;;13.27;11.85;;;22.10;99.90;;;;;;5087165;28;20460;-42
2023/09/12 09:34:19;;;;;;;17.60;13.70;;;22.10;99.90;;;;;;5086345;28;20024;-42
2023/09/12 09:36:48;;;;;;;15.00;12.55;;;22.20;99.90;;;;;;5085955;28;20443;-42
2023/09/12 09:39:15;;;;;;;13.00;11.43;;;22.20;99.90;;;;;;5087191;28;20028;-42
2023/09/12 09:41:41;;;;;;;12.13;10.80;;;22.40;99.90;;;;;;5087262;28;20155;-42
2023/09/12 09:44:10;;;;;;;13.57;11.15;;;22.60;99.90;;;;;;5085968;28;20115;-43
2023/09/12 09:46:37;;;;;;;13.20;11.40;;;22.60;99.90;;;;;;5087058;28;20061;-42
2023/09/12 09:49:03;;;;;;;12.20;10.25;;;22.60;99.90;;;;;;5086057;28;20028;-42
2023/09/12 09:51:31;;;;;;;14.32;11.55;;;22.70;99.90;;;;;;5086353;28;20040;-42
2023/09/12 09:53:58;;;;;;;11.60;10.35;;;22.70;99.90;;;;;;5086976;28;20031;-42
2023/09/12 09:56:27;;;;;;;16.15;13.30;;;22.70;99.90;;;;;;5085629;28;20040;-42
2023/09/12 09:58:56;;;;;;;18.63;15.13;;;22.70;99.90;;;;;;5086532;28;20020;-42
2023/09/12 10:01:27;;;;;;;14.13;11.68;;;22.60;99.90;;;;;;5086119;28;20048;-43
2023/09/12 10:03:55;;;;;;;12.00;10.73;;;22.60;99.90;;;;;;5085599;28;20449;-42
2023/09/12 10:06:20;;;;;;;11.70;10.48;;;22.60;99.90;;;;;;5086126;28;20028;-42
2023/09/12 10:08:52;;;;;;;10.30;8.90;;;22.70;99.90;;;;;;5086877;28;20031;-44
2023/09/12 10:11:18;;;;;;;12.15;9.77;;;22.90;99.90;;;;;;5085597;28;20024;-42
2023/09/12 10:13:52;;;;;;;9.05;8.10;;;23.00;99.90;;;;;;5086192;28;20528;-42
2023/09/12 10:16:20;;;;;;;8.45;7.65;;;23.10;99.90;;;;;;5086555;28;20346;-42
2023/09/12 10:19:10;;;;;;;7.45;6.65;;;23.20;99.90;;;;;;5085586;28;20444;-42
2023/09/12 10:21:35;;;;;;;10.18;7.55;;;23.20;99.90;;;;;;5086653;28;20028;-42
2023/09/12 10:24:03;;;;;;;7.05;6.03;;;23.30;99.90;;;;;;5085383;28;20013;-43
2023/09/12 10:26:31;;;;;;;9.50;7.88;;;23.20;99.90;;;;;;5085447;28;20082;-42
2023/09/12 10:28:59;;;;;;;8.00;6.50;;;23.20;99.90;;;;;;5085356;28;20028;-42
2023/09/12 10:31:25;;;;;;;7.25;6.22;;;23.20;99.90;;;;;;5085254;28;20064;-43
2023/09/12 10:33:50;;;;;;;7.72;6.80;;;23.10;99.90;;;;;;5085218;28;20581;-43
2023/09/12 10:36:19;;;;;;;9.07;7.57;;;23.10;99.90;;;;;;5084784;28;20128;-42
2023/09/12 10:38:48;;;;;;;10.48;7.55;;;23.00;99.90;;;;;;5084736;28;20097;-42
2023/09/12 10:41:16;;;;;;;6.40;5.75;;;23.00;99.90;;;;;;5085589;28;20040;-42
2023/09/12 10:44:09;;;;;;;8.68;7.78;;;23.00;99.90;;;;;;5085898;28;20103;-42
2023/09/12 10:46:39;;;;;;;7.28;6.30;;;23.00;99.90;;;;;;5085623;28;20082;-42
2023/09/12 10:49:11;;;;;;;7.70;6.28;;;23.00;99.90;;;;;;5085309;28;20047;-42
2023/09/12 10:51:42;;;;;;;7.65;6.85;;;23.00;99.90;;;;;;5086343;28;20375;-42
2023/09/12 10:54:08;;;;;;;8.52;7.63;;;23.10;99.90;;;;;;5084370;28;20031;-43
2023/09/12 10:56:34;;;;;;;8.25;7.13;;;23.30;99.90;;;;;;5086466;28;20110;-43
2023/09/12 10:59:12;;;;;;;6.85;6.13;;;23.40;99.90;;;;;;5085032;28;20127;-43
2023/09/12 11:01:45;;;;;;;7.95;5.95;;;23.60;99.90;;;;;;5084670;28;20479;-43
2023/09/12 11:04:19;;;;;;;7.15;6.45;;;23.80;99.90;;;;;;5084681;28;20039;-43
2023/09/12 11:06:49;;;;;;;7.88;6.45;;;24.00;99.90;;;;;;5084866;28;20136;-43
2023/09/12 11:09:16;;;;;;;8.02;7.22;;;24.10;99.90;;;;;;5084751;28;20020;-43
2023/09/12 11:11:46;;;;;;;7.20;6.47;;;24.10;99.90;;;;;;5085160;28;20031;-43
2023/09/12 11:14:13;;;;;;;7.18;5.78;;;24.10;99.90;;;;;;5083559;28;20558;-43
2023/09/12 11:16:39;;;;;;;8.27;5.88;;;24.10;99.90;;;;;;5074015;28;20040;-44
2023/09/12 11:19:20;;;;;;;6.90;6.15;;;24.20;99.90;;;;;;5084746;28;20437;-43
2023/09/12 11:21:48;;;;;;;7.00;6.30;;;24.30;99.90;;;;;;5084397;28;20388;-43
2023/09/12 11:24:14;;;;;;;6.38;5.78;;;24.50;99.90;;;;;;5083831;28;20023;-43
2023/09/12 11:27:01;;;;;;;5.95;5.43;;;24.60;99.90;;;;;;5085775;28;20070;-43
2023/09/12 11:29:35;;;;;;;6.25;5.65;;;24.70;99.90;;;;;;5084712;28;20123;-43
2023/09/12 11:32:02;;;;;;;7.15;6.45;;;24.80;99.90;;;;;;5084407;28;20498;-43
2023/09/12 11:34:29;;;;;;;7.97;6.70;;;24.90;99.90;;;;;;5085447;28;20031;-43
2023/09/12 11:37:00;;;;;;;7.45;6.43;;;24.80;99.90;;;;;;5084165;28;20039;-43
2023/09/12 11:39:31;;;;;;;8.13;6.60;;;24.90;99.90;;;;;;5085131;28;20031;-43
2023/09/12 11:41:59;;;;;;;5.68;5.13;;;24.90;99.90;;;;;;5083169;28;20031;-44
2023/09/12 11:44:28;;;;;;;5.45;4.93;;;25.00;99.90;;;;;;5084918;28;20069;-43
2023/09/12 11:46:54;;;;;;;6.85;6.05;;;25.10;99.90;;;;;;5084868;28;20078;-43
2023/09/12 11:49:20;;;;;;;5.88;5.18;;;25.20;99.90;;;;;;5083428;28;20074;-43
2023/09/12 11:51:55;;;;;;;5.40;4.75;;;25.30;99.90;;;;;;5085142;28;20043;-43
2023/09/12 11:54:29;;;;;;;6.05;5.45;;;25.40;99.90;;;;;;5064341;28;20487;-42
2023/09/12 11:56:56;;;;;;;5.57;5.05;;;25.50;99.90;;;;;;5080497;28;20039;-42
2023/09/12 11:59:23;;;;;;;8.05;6.20;;;25.50;99.90;;;;;;5083956;28;20085;-42
2023/09/12 12:01:49;;;;;;;7.05;5.63;;;25.60;99.90;;;;;;5084265;28;20125;-43
2023/09/12 12:04:14;;;;;;;10.60;7.20;;;25.70;99.90;;;;;;5084056;28;20032;-42
2023/09/12 12:06:41;;;;;;;9.25;7.60;;;25.80;99.90;;;;;;5085045;28;20438;-43
2023/09/12 12:09:10;;;;;;;7.60;6.63;;;25.80;99.90;;;;;;5084617;28;20031;-42
2023/09/12 12:11:35;;;;;;;6.78;6.07;;;25.90;99.90;;;;;;5077066;28;20020;-43
2023/09/12 12:14:15;;;;;;;4.75;4.28;;;26.00;99.90;;;;;;5084125;28;20028;-43
2023/09/12 12:16:44;;;;;;;5.18;4.68;;;26.00;99.90;;;;;;5085003;28;20024;-43
2023/09/12 12:19:14;;;;;;;6.78;5.00;;;26.00;99.90;;;;;;5083218;28;20455;-43
2023/09/12 12:21:43;;;;;;;6.63;5.47;;;26.00;99.90;;;;;;5084590;28;20032;-43
2023/09/12 12:24:12;;;;;;;6.43;4.85;;;25.90;99.90;;;;;;5083564;28;20027;-43
2023/09/12 12:26:42;;;;;;;5.88;5.30;;;25.80;99.90;;;;;;5083878;28;20035;-43
2023/09/12 12:29:13;;;;;;;6.40;5.55;;;25.70;99.90;;;;;;5072991;28;20025;-43
2023/09/12 12:31:39;;;;;;;5.90;4.43;;;25.50;99.90;;;;;;5083475;28;20432;-43
2023/09/12 12:34:05;;;;;;;5.50;4.82;;;25.50;99.90;;;;;;5084227;28;20035;-43
2023/09/12 12:36:31;;;;;;;4.80;4.40;;;25.40;99.90;;;;;;5072851;28;20112;-43